Time;durP1;ratioP1;P1;durP2;ratioP2;P2;SDS_P1;SDS_P2;PMS_P1;PMS_P2;Temp;Humidity;BMP_temperature;BMP_pressure;BME280_temperature;BME280_humidity;BME280_pressure;Samples;Min_cycle;Max_cycle;Signal;HPM_P1;HPM_P2
2023/07/26 00:00:18;;;;;;;6.83;2.60;;;;;;;;;;4914264;29;20087;-59
2023/07/26 00:02:44;;;;;;;5.87;2.83;;;;;;;;;;4913654;29;20048;-60
2023/07/26 00:05:10;;;;;;;4.10;2.87;;;;;;;;;;4913720;29;20534;-59
2023/07/26 00:07:36;;;;;;;6.27;2.90;;;;;;;;;;4913035;29;20463;-59
2023/07/26 00:10:02;;;;;;;5.63;3.50;;;;;;;;;;4914198;29;20056;-59
2023/07/26 00:12:28;;;;;;;4.53;2.80;;;;;;;;;;4913580;29;20108;-59
2023/07/26 00:14:54;;;;;;;8.53;3.40;;;;;;;;;;4913997;29;20044;-59
2023/07/26 00:17:20;;;;;;;5.30;3.10;;;;;;;;;;4912984;29;20048;-60
2023/07/26 00:19:46;;;;;;;6.80;2.97;;;;;;;;;;4913630;29;20107;-60
2023/07/26 00:22:12;;;;;;;5.33;3.23;;;;;;;;;;4913819;29;20048;-59
2023/07/26 00:24:38;;;;;;;4.40;3.50;;;;;;;;;;4912878;29;20066;-59
2023/07/26 00:27:05;;;;;;;6.67;3.40;;;;;;;;;;4912313;29;20051;-59
2023/07/26 00:29:31;;;;;;;9.07;4.10;;;;;;;;;;4913391;29;20055;-60
2023/07/26 00:31:57;;;;;;;4.50;3.77;;;;;;;;;;4913409;29;20070;-59
2023/07/26 00:34:23;;;;;;;6.83;3.87;;;;;;;;;;4913298;29;20573;-59
2023/07/26 00:36:49;;;;;;;6.07;3.87;;;;;;;;;;4913061;29;20084;-60
2023/07/26 00:39:15;;;;;;;6.63;4.27;;;;;;;;;;4913261;29;20055;-59
2023/07/26 00:41:41;;;;;;;7.10;4.63;;;;;;;;;;4912941;29;20048;-60
2023/07/26 00:44:07;;;;;;;7.57;3.97;;;;;;;;;;4913278;29;20052;-60
2023/07/26 00:46:33;;;;;;;6.80;4.57;;;;;;;;;;4912737;29;20462;-59
2023/07/26 00:49:00;;;;;;;11.37;4.23;;;;;;;;;;4911968;29;20103;-59
2023/07/26 00:51:26;;;;;;;8.70;4.07;;;;;;;;;;4913090;29;20052;-59
2023/07/26 00:53:52;;;;;;;5.23;4.27;;;;;;;;;;4913111;29;20058;-59
2023/07/26 00:56:18;;;;;;;8.17;5.47;;;;;;;;;;4912595;29;20055;-59
2023/07/26 00:58:44;;;;;;;8.57;5.10;;;;;;;;;;4912913;29;20138;-59
2023/07/26 01:01:10;;;;;;;10.30;4.53;;;;;;;;;;4912170;29;20048;-59
2023/07/26 01:03:36;;;;;;;6.13;4.43;;;;;;;;;;4913040;29;20051;-59
2023/07/26 01:06:15;;;;;;;8.13;4.70;;;;;;;;;;4912767;29;20054;-60
2023/07/26 01:08:47;;;;;;;10.00;5.07;;;;;;;;;;4912999;29;20088;-59
2023/07/26 01:11:16;;;;;;;9.37;4.97;;;;;;;;;;4910296;29;20566;-59
2023/07/26 01:13:48;;;;;;;8.83;5.10;;;;;;;;;;4913124;29;20052;-59
2023/07/26 01:16:14;;;;;;;9.73;5.97;;;;;;;;;;4913140;29;20052;-60
2023/07/26 01:18:40;;;;;;;7.57;5.00;;;;;;;;;;4912901;29;20088;-59
2023/07/26 01:21:06;;;;;;;9.37;5.27;;;;;;;;;;4912309;29;20475;-59
2023/07/26 01:23:32;;;;;;;9.10;5.20;;;;;;;;;;4912632;29;20060;-59
2023/07/26 01:25:58;;;;;;;9.07;5.17;;;;;;;;;;4912273;29;20149;-59
2023/07/26 01:28:24;;;;;;;12.97;4.93;;;;;;;;;;4912682;29;20052;-59
2023/07/26 01:30:50;;;;;;;9.57;5.23;;;;;;;;;;4912515;29;20060;-59
2023/07/26 01:33:18;;;;;;;10.20;5.13;;;;;;;;;;4912727;29;20058;-59
2023/07/26 01:35:45;;;;;;;9.83;5.63;;;;;;;;;;4911700;29;20044;-59
2023/07/26 01:38:12;;;;;;;12.17;5.87;;;;;;;;;;4896376;29;20052;-59
2023/07/26 01:40:38;;;;;;;7.83;6.27;;;;;;;;;;4912017;29;20055;-59
2023/07/26 01:43:04;;;;;;;8.53;6.10;;;;;;;;;;4912676;29;20059;-59
2023/07/26 01:45:30;;;;;;;9.70;6.50;;;;;;;;;;4910712;29;20087;-60
2023/07/26 01:47:56;;;;;;;11.00;6.10;;;;;;;;;;4911527;29;20079;-59
2023/07/26 01:50:22;;;;;;;8.77;5.83;;;;;;;;;;4912477;29;20471;-60
2023/07/26 01:52:49;;;;;;;11.60;7.10;;;;;;;;;;4912500;29;20060;-59
2023/07/26 01:55:15;;;;;;;10.13;6.80;;;;;;;;;;4911806;29;20143;-59
2023/07/26 01:57:41;;;;;;;10.17;6.67;;;;;;;;;;4911953;29;20061;-59
2023/07/26 02:00:07;;;;;;;11.17;7.50;;;;;;;;;;4911386;29;20052;-59
2023/07/26 02:02:33;;;;;;;12.27;7.67;;;;;;;;;;4912274;29;20048;-59
2023/07/26 02:05:03;;;;;;;8.77;7.10;;;;;;;;;;4912526;29;20069;-60
2023/07/26 02:07:29;;;;;;;10.70;7.30;;;;;;;;;;4910376;29;20048;-60
2023/07/26 02:09:55;;;;;;;11.77;7.77;;;;;;;;;;4911092;29;20470;-59
2023/07/26 02:12:21;;;;;;;13.33;8.30;;;;;;;;;;4922680;29;20463;-59
2023/07/26 02:14:47;;;;;;;11.87;8.17;;;;;;;;;;4930887;29;20146;-59
2023/07/26 02:17:13;;;;;;;14.10;7.93;;;;;;;;;;4929684;29;20047;-59
2023/07/26 02:19:39;;;;;;;13.63;8.00;;;;;;;;;;4930409;29;20048;-59
2023/07/26 02:22:05;;;;;;;17.80;8.40;;;;;;;;;;4931130;29;20099;-59
2023/07/26 02:24:33;;;;;;;10.97;7.70;;;;;;;;;;4930437;29;20458;-59
2023/07/26 02:26:59;;;;;;;14.77;8.17;;;;;;;;;;4916999;29;20135;-59
2023/07/26 02:29:26;;;;;;;12.97;9.27;;;;;;;;;;4912004;29;20139;-59
2023/07/26 02:31:52;;;;;;;10.33;6.90;;;;;;;;;;4912286;29;20083;-62
2023/07/26 02:34:18;;;;;;;10.57;7.03;;;;;;;;;;4911508;29;20082;-62
2023/07/26 02:36:44;;;;;;;10.70;6.73;;;;;;;;;;4911341;29;20582;-62
2023/07/26 02:39:10;;;;;;;10.37;7.87;;;;;;;;;;4911973;29;20507;-62
2023/07/26 02:41:36;;;;;;;11.33;7.27;;;;;;;;;;4911812;29;20456;-62
2023/07/26 02:44:02;;;;;;;14.33;7.70;;;;;;;;;;4911150;29;20099;-62
2023/07/26 02:46:28;;;;;;;8.87;7.57;;;;;;;;;;4910829;29;20048;-62
2023/07/26 02:48:54;;;;;;;11.17;7.57;;;;;;;;;;4911774;29;20388;-62
2023/07/26 02:51:20;;;;;;;11.97;8.63;;;;;;;;;;4912193;29;20048;-62
2023/07/26 02:53:46;;;;;;;11.33;7.93;;;;;;;;;;4911863;29;20078;-62
2023/07/26 02:56:12;;;;;;;10.80;8.00;;;;;;;;;;4911155;29;20408;-62
2023/07/26 02:58:38;;;;;;;14.50;8.37;;;;;;;;;;4911879;29;20083;-62
2023/07/26 03:01:04;;;;;;;12.07;8.77;;;;;;;;;;4911825;29;20044;-61
2023/07/26 03:03:30;;;;;;;13.67;9.03;;;;;;;;;;4911813;29;20044;-62
2023/07/26 03:05:58;;;;;;;16.60;8.93;;;;;;;;;;4910784;29;20044;-62
2023/07/26 03:08:24;;;;;;;15.80;8.13;;;;;;;;;;4911886;29;20127;-61
2023/07/26 03:10:51;;;;;;;12.33;8.03;;;;;;;;;;4911058;29;20059;-62
2023/07/26 03:13:17;;;;;;;14.83;7.80;;;;;;;;;;4915580;29;20083;-62
2023/07/26 03:15:44;;;;;;;13.90;8.20;;;;;;;;;;4914531;29;20066;-62
2023/07/26 03:18:10;;;;;;;12.63;8.37;;;;;;;;;;4914973;29;20063;-62
2023/07/26 03:20:36;;;;;;;11.90;7.70;;;;;;;;;;4915023;29;20059;-62
2023/07/26 03:23:02;;;;;;;11.70;8.30;;;;;;;;;;4914502;29;20052;-62
2023/07/26 03:25:28;;;;;;;15.73;9.53;;;;;;;;;;4914467;29;20051;-62
2023/07/26 03:27:55;;;;;;;10.47;8.63;;;;;;;;;;4913283;29;20079;-62
2023/07/26 03:30:21;;;;;;;10.60;7.83;;;;;;;;;;4914090;29;20052;-62
2023/07/26 03:32:47;;;;;;;15.50;8.60;;;;;;;;;;4914361;29;20063;-62
2023/07/26 03:35:13;;;;;;;12.57;8.17;;;;;;;;;;4914534;29;20044;-62
2023/07/26 03:37:39;;;;;;;10.77;7.73;;;;;;;;;;4914211;29;20100;-62
2023/07/26 03:40:05;;;;;;;13.83;9.10;;;;;;;;;;4914367;29;20048;-62
2023/07/26 03:42:31;;;;;;;12.27;8.73;;;;;;;;;;4914744;29;20498;-62
2023/07/26 03:44:57;;;;;;;11.07;8.43;;;;;;;;;;4914494;29;20243;-62
2023/07/26 03:47:23;;;;;;;16.20;9.20;;;;;;;;;;4914275;29;20052;-62
2023/07/26 03:49:49;;;;;;;14.20;8.73;;;;;;;;;;4897208;29;20415;-62
2023/07/26 03:52:15;;;;;;;12.10;9.03;;;;;;;;;;4914215;29;20116;-62
2023/07/26 03:54:41;;;;;;;12.67;9.17;;;;;;;;;;4914454;29;20097;-62
2023/07/26 03:57:07;;;;;;;12.77;9.37;;;;;;;;;;4913889;29;20044;-62
2023/07/26 03:59:34;;;;;;;11.03;9.03;;;;;;;;;;4913373;29;20059;-62
2023/07/26 04:02:00;;;;;;;15.37;9.13;;;;;;;;;;4914229;29;20056;-62
2023/07/26 04:04:26;;;;;;;13.53;9.13;;;;;;;;;;4914038;29;20499;-62
2023/07/26 04:06:52;;;;;;;10.70;8.47;;;;;;;;;;4913385;29;20410;-62
2023/07/26 04:09:18;;;;;;;13.93;9.50;;;;;;;;;;4913963;29;20106;-62
2023/07/26 04:11:44;;;;;;;12.70;9.53;;;;;;;;;;4913476;29;20048;-62
2023/07/26 04:14:10;;;;;;;12.17;9.87;;;10.50;99.90;;;;;;4912984;29;20052;-62
2023/07/26 04:16:35;;;;;;;13.80;9.57;;;10.10;99.90;;;;;;4913287;29;20451;-62
2023/07/26 04:19:01;;;;;;;14.13;9.60;;;10.30;99.90;;;;;;4913401;29;20135;-62
2023/07/26 04:21:27;;;;;;;10.47;8.07;;;10.30;99.90;;;;;;4913834;29;20079;-59
2023/07/26 04:23:52;;;;;;;16.43;9.70;;;10.40;99.90;;;;;;4912161;29;20056;-60
2023/07/26 04:26:19;;;;;;;13.57;8.37;;;10.50;99.90;;;;;;4913682;29;20056;-60
2023/07/26 04:28:45;;;;;;;14.60;8.73;;;10.60;99.90;;;;;;4913596;29;20086;-59
2023/07/26 04:31:11;;;;;;;14.30;7.97;;;;;;;;;;4912835;29;20040;-60
2023/07/26 04:33:37;;;;;;;11.63;7.93;;;;;;;;;;4913372;29;20048;-59
2023/07/26 04:36:03;;;;;;;13.17;8.90;;;;;;;;;;4912576;29;20059;-59
2023/07/26 04:38:29;;;;;;;9.50;7.90;;;;;;;;;;4913332;29;20044;-59
2023/07/26 04:40:55;;;;;;;9.27;6.70;;;;;;;;;;4913469;29;20217;-59
2023/07/26 04:43:21;;;;;;;10.13;7.57;;;;;;;;;;4913192;29;20169;-59
2023/07/26 04:45:50;;;;;;;9.57;7.20;;;;;;;;;;4912846;29;20047;-60
2023/07/26 04:48:20;;;;;;;9.00;7.50;;;;;;;;;;4913321;29;20048;-59
2023/07/26 04:50:47;;;;;;;8.60;6.43;;;;;;;;;;4912812;29;20130;-60
2023/07/26 04:53:14;;;;;;;9.47;6.73;;;;;;;;;;4913203;29;20083;-60
2023/07/26 04:55:44;;;;;;;12.53;6.73;;;;;;;;;;4912765;29;20100;-60
2023/07/26 04:58:10;;;;;;;7.50;6.37;;;;;;;;;;4913127;29;20074;-60
2023/07/26 05:00:39;;;;;;;8.87;6.10;;;;;;;;;;4911419;29;20193;-60
2023/07/26 05:03:06;;;;;;;10.50;6.43;;;;;;;;;;4907364;29;20079;-60
2023/07/26 05:05:33;;;;;;;7.50;5.40;;;;;;;;;;4913302;29;20075;-59
2023/07/26 05:07:59;;;;;;;9.83;5.97;;;;;;;;;;4913135;29;20044;-59
2023/07/26 05:10:25;;;;;;;8.57;5.50;;;;;;;;;;4912868;29;20139;-59
2023/07/26 05:12:54;;;;;;;6.70;4.90;;;;;;;;;;4912382;29;20467;-60
2023/07/26 05:15:20;;;;;;;11.90;5.53;;;;;;;;;;4912629;29;20392;-59
2023/07/26 05:17:46;;;;;;;9.23;5.77;;;;;;;;;;4910187;29;20727;-60
2023/07/26 05:20:13;;;;;;;7.83;6.13;;;;;;;;;;4911493;29;20132;-60
2023/07/26 05:22:39;;;;;;;7.67;5.87;;;;;;;;;;4911722;29;20047;-60
2023/07/26 05:25:06;;;;;;;9.47;6.70;;;;;;;;;;4912642;29;20059;-60
2023/07/26 05:27:32;;;;;;;9.57;6.40;;;;;;;;;;4912996;29;20059;-62
2023/07/26 05:29:58;;;;;;;10.30;6.00;;;;;;;;;;4911459;29;20067;-62
2023/07/26 05:32:24;;;;;;;9.37;6.07;;;;;;;;;;4912850;29;20048;-62
2023/07/26 05:34:54;;;;;;;10.80;6.80;;;;;;;;;;4912267;29;20063;-62
2023/07/26 05:37:20;;;;;;;11.13;7.07;;;;;;;;;;4911086;29;20052;-62
2023/07/26 05:39:46;;;;;;;8.87;6.40;;;;;;;;;;4912555;29;20059;-62
2023/07/26 05:42:12;;;;;;;9.30;6.60;;;;;;;;;;4912047;29;20138;-62
2023/07/26 05:44:39;;;;;;;11.33;6.80;;;;;;;;;;4912402;29;20286;-63
2023/07/26 05:47:05;;;;;;;11.10;7.67;;;;;;;;;;4911983;29;20052;-62
2023/07/26 05:49:31;;;;;;;11.87;7.43;;;;;;;;;;4911410;29;20055;-62
2023/07/26 05:51:59;;;;;;;8.43;6.97;;;;;;;;;;4911215;29;20510;-62
2023/07/26 05:54:25;;;;;;;12.70;8.07;;;;;;;;;;4912317;29;20056;-60
2023/07/26 05:56:51;;;;;;;13.60;7.77;;;;;;;;;;4912343;29;20058;-60
2023/07/26 05:59:17;;;;;;;10.60;6.63;;;;;;;;;;4911598;29;20409;-60
2023/07/26 06:01:43;;;;;;;10.33;7.40;;;;;;;;;;4911865;29;20048;-60
2023/07/26 06:04:09;;;;;;;8.77;7.37;;;;;;;;;;4912230;29;20050;-60
2023/07/26 06:06:35;;;;;;;11.70;7.97;;;;;;;;;;4911366;29;20120;-60
2023/07/26 06:09:01;;;;;;;16.70;7.77;;;;;;;;;;4911765;29;20146;-60
2023/07/26 06:11:27;;;;;;;11.27;7.13;;;;;;;;;;4912059;29;20756;-60
2023/07/26 06:13:54;;;;;;;12.10;7.83;;;;;;;;;;4912104;29;20499;-60
2023/07/26 06:16:20;;;;;;;8.17;6.77;;;;;;;;;;4912555;29;20056;-60
2023/07/26 06:18:46;;;;;;;8.63;6.73;;;;;;;;;;4912114;29;20591;-60
2023/07/26 06:21:13;;;;;;;8.90;6.33;;;;;;;;;;4910607;29;20506;-60
2023/07/26 06:23:39;;;;;;;10.27;6.43;;;;;;;;;;4911214;29;20079;-60
2023/07/26 06:26:05;;;;;;;6.93;5.97;;;;;;;;;;4912293;29;20079;-60
2023/07/26 06:28:31;;;;;;;9.23;6.27;;;;;;;;;;4912270;29;20052;-62
2023/07/26 06:30:57;;;;;;;9.60;5.37;;;;;;;;;;4910787;29;20040;-62
2023/07/26 06:33:23;;;;;;;8.97;5.27;;;;;;;;;;4911527;29;20044;-60
2023/07/26 06:35:49;;;;;;;6.00;4.67;;;;;;;;;;4912244;29;20451;-60
2023/07/26 06:38:15;;;;;;;6.33;4.87;;;;;;;;;;4911843;29;20507;-60
2023/07/26 06:40:41;;;;;;;7.67;4.90;;;;;;;;;;4912156;29;20048;-60
2023/07/26 06:43:07;;;;;;;11.50;6.57;;;;;;;;;;4912044;29;20059;-59
2023/07/26 06:45:33;;;;;;;10.43;5.27;;;;;;;;;;4911344;29;20044;-60
2023/07/26 06:47:59;;;;;;;9.50;4.70;;;;;;;;;;4915109;29;20186;-60
2023/07/26 06:50:25;;;;;;;7.63;4.73;;;;;;;;;;4896121;29;21249;-60
2023/07/26 06:52:51;;;;;;;7.20;4.73;;;;;;;;;;4915810;29;20458;-60
2023/07/26 06:55:17;;;;;;;7.10;4.40;;;;;;;;;;4915031;29;20539;-60
2023/07/26 06:57:43;;;;;;;7.40;4.37;;;;;;;;;;4920051;29;20187;-60
2023/07/26 07:00:12;;;;;;;6.47;4.63;;;;;;;;;;4913398;29;20480;-60
2023/07/26 07:02:39;;;;;;;7.00;5.00;;;;;;;;;;4913393;29;20172;-60
2023/07/26 07:05:06;;;;;;;7.43;4.63;;;;;;;;;;4915563;29;20104;-60
2023/07/26 07:07:32;;;;;;;7.43;5.23;;;;;;;;;;4917271;29;20044;-61
2023/07/26 07:09:58;;;;;;;7.80;4.67;;;;;;;;;;4913029;29;20499;-62
2023/07/26 07:12:24;;;;;;;7.87;4.67;;;;;;;;;;4916007;29;20537;-62
2023/07/26 07:14:50;;;;;;;6.67;4.30;;;;;;;;;;4913079;29;20055;-62
2023/07/26 07:17:16;;;;;;;6.60;4.47;;;;;;;;;;4914361;29;20059;-62
2023/07/26 07:19:45;;;;;;;6.47;5.27;;;;;;;;;;4913949;29;20415;-62
2023/07/26 07:22:11;;;;;;;15.57;6.90;;;;;;;;;;4914167;29;20055;-61
2023/07/26 07:24:38;;;;;;;17.77;7.53;;;;;;;;;;4917933;29;20400;-63
2023/07/26 07:27:05;;;;;;;12.50;6.80;;;;;;;;;;4914184;29;20467;-63
2023/07/26 07:29:32;;;;;;;5.80;3.37;;;;;;;;;;4914384;29;20093;-64
2023/07/26 07:31:58;;;;;;;6.77;4.00;;;;;;;;;;4913211;29;20044;-63
2023/07/26 07:34:25;;;;;;;11.33;5.50;;;;;;;;;;4913095;29;20048;-64
2023/07/26 07:36:51;;;;;;;13.00;6.60;;;;;;;;;;4932756;29;20094;-64
2023/07/26 07:39:17;;;;;;;11.97;7.33;;;;;;;;;;4918999;29;20142;-64
2023/07/26 07:41:43;;;;;;;15.07;8.90;;;;;;;;;;4914290;29;20594;-65
2023/07/26 07:44:09;;;;;;;15.23;9.03;;;;;;;;;;4913876;29;20160;-64
2023/07/26 07:46:35;;;;;;;11.67;8.43;;;;;;;;;;4913497;29;20171;-64
2023/07/26 07:49:01;;;;;;;12.37;8.40;;;;;;;;;;4913842;29;20115;-64
2023/07/26 07:51:27;;;;;;;13.70;9.43;;;;;;;;;;4914118;29;20158;-64
2023/07/26 07:53:53;;;;;;;13.50;8.93;;;;;;;;;;4913489;29;20510;-64
2023/07/26 07:56:19;;;;;;;12.07;8.13;;;;;;;;;;4913406;29;20048;-64
2023/07/26 07:58:45;;;;;;;11.13;6.80;;;;;;;;;;4912210;29;20575;-64
2023/07/26 08:01:11;;;;;;;10.90;7.00;;;;;;;;;;4914136;29;20656;-64
2023/07/26 08:03:37;;;;;;;9.70;4.40;;;;;;;;;;4913919;29;20048;-64
2023/07/26 08:06:03;;;;;;;6.03;3.97;;;;;;;;;;4913500;29;20048;-64
2023/07/26 08:08:29;;;;;;;7.37;4.30;;;;;;;;;;4912474;29;20103;-63
2023/07/26 08:10:55;;;;;;;8.80;4.60;;;;;;;;;;4913745;29;20573;-64
2023/07/26 08:13:21;;;;;;;6.43;4.00;;;;;;;;;;4913862;29;20048;-63
2023/07/26 08:15:48;;;;;;;5.37;3.10;;;;;;;;;;4912343;29;20114;-64
2023/07/26 08:18:14;;;;;;;5.20;3.60;;;;;;;;;;4912082;29;20053;-64
2023/07/26 08:20:40;;;;;;;5.70;3.10;;;;;;;;;;4913484;29;20056;-64
2023/07/26 08:23:06;;;;;;;6.23;3.33;;;;;;;;;;4913617;29;20534;-64
2023/07/26 08:25:32;;;;;;;4.47;2.70;;;;;;;;;;4913196;29;20428;-63
2023/07/26 08:27:58;;;;;;;4.70;3.40;;;;;;;;;;4913292;29;20052;-63
2023/07/26 08:30:24;;;;;;;4.87;2.97;;;;;;;;;;4911870;29;20048;-63
2023/07/26 08:32:51;;;;;;;3.97;2.57;;;;;;;;;;4913415;29;20059;-63
2023/07/26 08:35:17;;;;;;;4.63;2.50;;;;;;;;;;4913002;29;20099;-63
2023/07/26 08:37:44;;;;;;;5.07;2.50;;;;;;;;;;4913174;29;20101;-63
2023/07/26 08:40:10;;;;;;;4.17;2.23;;;;;;;;;;4912428;29;20055;-63
2023/07/26 08:42:36;;;;;;;4.83;2.50;;;;;;;;;;4913182;29;20411;-62
2023/07/26 08:45:03;;;;;;;3.43;2.60;;;;;;;;;;4912182;29;20418;-63
2023/07/26 08:47:30;;;;;;;4.23;2.80;;;;;;;;;;4912555;29;20052;-62
2023/07/26 08:49:57;;;;;;;5.53;2.57;;;;;;;;;;4912996;29;20110;-62
2023/07/26 08:52:24;;;;;;;4.00;2.93;;;;;;;;;;4913182;29;20044;-62
2023/07/26 08:54:51;;;;;;;4.87;2.90;;;;;;;;;;4912985;29;20048;-62
2023/07/26 08:57:18;;;;;;;4.90;2.50;;;;;;;;;;4911509;29;20079;-61
2023/07/26 08:59:44;;;;;;;4.13;2.70;;;;;;;;;;4910620;29;20044;-61
2023/07/26 09:02:11;;;;;;;3.77;2.53;;;;;;;;;;4913056;29;20044;-62
2023/07/26 09:04:37;;;;;;;4.70;3.00;;;;;;;;;;4912687;29;20044;-62
2023/07/26 09:07:03;;;;;;;4.50;2.90;;;;;;;;;;4912477;29;20044;-61
2023/07/26 09:09:33;;;;;;;4.40;2.87;;;;;;;;;;4912456;29;20092;-61
2023/07/26 09:11:59;;;;;;;5.07;3.10;;;;;;;;;;4912831;29;20052;-61
2023/07/26 09:14:27;;;;;;;6.03;2.90;;;;;;;;;;4912415;29;20062;-61
2023/07/26 09:16:56;;;;;;;4.27;2.37;;;;;;;;;;4912260;29;20075;-61
2023/07/26 09:19:33;;;;;;;6.77;2.93;;;;;;;;;;4912154;29;20052;-61
2023/07/26 09:22:02;;;;;;;5.10;2.80;;;;;;;;;;4912536;29;20127;-61
2023/07/26 09:24:33;;;;;;;4.50;2.23;;;;;;;;;;4912165;29;20052;-61
2023/07/26 09:27:09;;;;;;;6.07;2.50;;;;;;;;;;4912503;29;20048;-61
2023/07/26 09:29:36;;;;;;;5.23;2.63;;;;;;;;;;4911726;29;20051;-61
2023/07/26 09:32:03;;;;;;;5.80;2.77;;;;;;;;;;4912029;29;20048;-61
2023/07/26 09:34:32;;;;;;;4.00;2.70;;;;;;;;;;4912402;29;20075;-60
2023/07/26 09:36:58;;;;;;;5.30;3.20;;;;;;;;;;4912576;29;20613;-60
2023/07/26 09:39:33;;;;;;;4.50;2.87;;;;;;;;;;4912552;29;20048;-60
2023/07/26 09:42:06;;;;;;;3.30;2.37;;;;;;;;;;4912357;29;20048;-61
2023/07/26 09:44:32;;;;;;;6.15;3.15;;;;;;;;;;4912015;29;20422;-61
2023/07/26 09:46:58;;;;;;;5.03;2.93;;;;;;;;;;4911848;29;20074;-60
2023/07/26 09:49:27;;;;;;;3.73;2.60;;;;;;;;;;4912177;29;20044;-60
2023/07/26 09:51:54;;;;;;;5.80;3.27;;;;;;;;;;4911605;29;20088;-60
2023/07/26 09:54:23;;;;;;;4.33;2.90;;;;;;;;;;4911239;29;20502;-61
2023/07/26 09:56:49;;;;;;;7.27;2.97;;;;;;;;;;4910638;29;20059;-61
2023/07/26 09:59:15;;;;;;;5.87;3.27;;;;;;;;;;4912606;29;20088;-60
2023/07/26 10:01:42;;;;;;;5.03;2.93;;;;;;;;;;4912500;29;20090;-61
2023/07/26 10:04:20;;;;;;;4.60;2.70;;;;;;;;;;4912433;29;20083;-60
2023/07/26 10:06:49;;;;;;;5.43;2.80;;;;;;;;;;4911938;29;20115;-60
2023/07/26 10:09:16;;;;;;;5.90;3.13;;;;;;;;;;4912176;29;20063;-60
2023/07/26 10:11:43;;;;;;;5.10;2.90;;;;;;;;;;4912052;29;20139;-60
2023/07/26 10:14:12;;;;;;;5.10;2.80;;;;;;;;;;4912186;29;20131;-60
2023/07/26 10:16:38;;;;;;;4.03;2.67;;;;;;;;;;4911153;29;20048;-60
2023/07/26 10:19:05;;;;;;;3.60;2.30;;;;;;;;;;4911485;29;20052;-61
2023/07/26 10:21:31;;;;;;;4.30;2.60;;;;;;;;;;4912315;29;20406;-61
2023/07/26 10:23:58;;;;;;;5.20;3.00;;;;;;;;;;4915161;29;20063;-62
2023/07/26 10:26:27;;;;;;;4.93;2.63;;;;;;;;;;4915006;29;20048;-60
2023/07/26 10:28:59;;;;;;;4.30;2.60;;;;;;;;;;4914181;29;20048;-61
2023/07/26 10:31:25;;;;;;;4.80;2.43;;;;;;;;;;4915732;29;20056;-61
2023/07/26 10:33:53;;;;;;;3.87;2.13;;;;;;;;;;4915598;29;20044;-61
2023/07/26 10:36:19;;;;;;;4.47;2.20;;;;;;;;;;4913965;29;20044;-61
2023/07/26 10:38:51;;;;;;;4.90;2.20;;;;;;;;;;4915466;29;20138;-61
2023/07/26 10:41:21;;;;;;;5.05;2.13;;;;;;;;;;4915534;29;20052;-61
2023/07/26 10:43:48;;;;;;;3.90;2.10;;;;;;;;;;4916840;29;20035;-61
2023/07/26 10:46:16;;;;;;;3.77;2.43;;;;;;;;;;4914657;29;20140;-61
2023/07/26 10:48:42;;;;;;;3.67;2.27;;;;;;;;;;4915215;29;20048;-61
2023/07/26 10:51:23;;;;;;;4.93;2.10;;;;;;;;;;4915454;29;20044;-62
2023/07/26 10:53:49;;;;;;;5.37;2.27;;;;;;;;;;4917820;29;20040;-60
2023/07/26 10:56:20;;;;;;;4.97;2.67;;;;;;;;;;4926839;29;20052;-61
2023/07/26 10:58:50;;;;;;;5.33;2.70;;;;;;;;;;4915836;29;20055;-61
2023/07/26 11:01:35;;;;;;;5.60;2.90;;;;;;;;;;4915139;29;20056;-61
2023/07/26 11:04:01;;;;;;;3.50;2.17;;;;;;;;;;4916295;29;20048;-61
2023/07/26 11:06:45;;;;;;;9.07;3.30;;;;;;;;;;4914434;29;20040;-61
2023/07/26 11:09:25;;;;;;;197.13;10.13;;;;;;;;;;4915078;29;20184;-64
2023/07/26 11:12:01;;;;;;;8.47;2.50;;;;;;;;;;4915856;29;20052;-64
2023/07/26 11:14:30;;;;;;;4.60;1.70;;;;;;;;;;4930906;29;20105;-64
2023/07/26 11:16:58;;;;;;;4.53;2.13;;;;;;;;;;4921417;29;20526;-64
2023/07/26 11:19:24;;;;;;;9.07;2.93;;;;;;;;;;4913876;29;20052;-64
2023/07/26 11:21:50;;;;;;;8.83;4.10;;;;;;;;;;4916203;29;20157;-64
2023/07/26 11:24:16;;;;;;;9.10;3.57;;;;;;;;;;4933667;29;20052;-64
2023/07/26 11:26:49;;;;;;;7.60;3.87;;;;;;;;;;4929956;29;20050;-64
2023/07/26 11:29:15;;;;;;;7.25;3.22;;;;;;;;;;4915579;29;20059;-64
2023/07/26 11:31:41;;;;;;;4.43;2.70;;;;;;;;;;4897270;29;20044;-64
2023/07/26 11:34:15;;;;;;;18.73;5.00;;;;;;;;;;4926267;29;20052;-64
2023/07/26 11:36:41;;;;;;;;;;;;;;;;;;4920106;29;20048;-64
2023/07/26 11:39:07;;;;;;;207.57;26.13;;;;;;;;;;4916673;29;19950;-64
2023/07/26 11:41:33;;;;;;;89.53;10.93;;;;;;;;;;4914778;29;20127;-64
2023/07/26 11:43:59;;;;;;;217.53;22.63;;;;;;;;;;4915187;29;20055;-65
2023/07/26 11:46:29;;;;;;;19.50;4.90;;;;;;;;;;4929694;29;20055;-64
2023/07/26 11:48:55;;;;;;;7.13;3.10;;;;;;;;;;4922242;29;20040;-64
2023/07/26 11:51:21;;;;;;;3.33;1.60;;;;;;;;;;4919984;29;20046;-64
2023/07/26 11:53:48;;;;;;;3.20;1.80;;;;;;;;;;4934079;29;20048;-63
2023/07/26 11:56:15;;;;;;;4.40;2.30;;;;;;;;;;4914577;29;20408;-64
2023/07/26 11:58:43;;;;;;;3.90;2.17;;;;;;;;;;4914610;29;20064;-63
2023/07/26 12:01:09;;;;;;;4.33;2.27;;;;;;;;;;4914168;29;20189;-62
2023/07/26 12:03:36;;;;;;;5.07;2.47;;;;;;;;;;4914711;29;20052;-62
2023/07/26 12:06:04;;;;;;;5.13;2.30;;;;;;;;;;4914172;29;20523;-62
2023/07/26 12:08:30;;;;;;;3.97;2.37;;;;;;;;;;4914684;29;20044;-62
2023/07/26 12:10:56;;;;;;;3.87;2.37;;;;;;;;;;4915019;29;20059;-62
2023/07/26 12:13:23;;;;;;;5.33;2.57;;;;;;;;;;4915458;29;20858;-61
2023/07/26 12:15:53;;;;;;;5.27;2.43;;;;;;;;;;4913491;29;20048;-61
2023/07/26 12:18:19;;;;;;;4.20;2.67;;;;;;;;;;4912514;29;20052;-61
2023/07/26 12:20:58;;;;;;;4.60;2.97;;;;;;;;;;4914110;29;20051;-61
2023/07/26 12:23:24;;;;;;;5.90;2.00;;;;;;;;;;4914012;29;20056;-61
2023/07/26 12:25:56;;;;;;;5.10;1.97;;;;;;;;;;4914162;29;20438;-61
2023/07/26 12:28:24;;;;;;;7.63;2.50;;;;;;;;;;4913470;29;20502;-60
2023/07/26 12:30:54;;;;;;;3.37;1.90;;;;;;;;;;4914221;29;20110;-60
2023/07/26 12:33:20;;;;;;;3.77;1.90;;;;;;;;;;4914075;29;20502;-61
2023/07/26 12:35:46;;;;;;;3.63;2.10;;;;;;;;;;4913490;29;20040;-60
2023/07/26 12:38:21;;;;;;;3.93;2.33;;;;;;;;;;4913438;29;20104;-61
2023/07/26 12:40:47;;;;;;;4.37;2.20;;;;;;;;;;4913991;29;20048;-61
2023/07/26 12:43:27;;;;;;;6.67;2.53;;;;;;;;;;4913396;29;20104;-61
2023/07/26 12:46:00;;;;;;;5.20;2.03;;;;;;;;;;4913257;29;20229;-60
2023/07/26 12:48:27;;;;;;;3.90;2.33;;;;;;;;;;4913323;29;20074;-61
2023/07/26 12:50:54;;;;;;;5.07;2.03;;;;;;;;;;4913470;29;20048;-61
2023/07/26 12:53:21;;;;;;;4.28;2.03;;;;;;;;;;4913703;29;20047;-61
2023/07/26 12:55:47;;;;;;;4.35;1.67;;;;;;;;;;4913709;29;20044;-61
2023/07/26 12:58:13;;;;;;;4.45;2.08;;;;;;;;;;4912790;29;20795;-61
2023/07/26 13:00:40;;;;;;;5.65;2.00;;;;;;;;;;4913410;29;20528;-61
2023/07/26 13:03:06;;;;;;;4.80;2.28;;;;;;;;;;4913837;29;20047;-61
2023/07/26 13:05:32;;;;;;;5.75;2.72;;;;;;;;;;4913451;29;20143;-61
2023/07/26 13:07:58;;;;;;;4.07;2.20;;;;;;;;;;4913227;29;20059;-61
2023/07/26 13:10:26;;;;;;;7.30;2.50;;;;;;;;;;4913204;29;20044;-61
2023/07/26 13:12:52;;;;;;;6.43;2.30;;;;;;;;;;4913378;29;20048;-61
2023/07/26 13:15:21;;;;;;;4.18;2.38;;;;;;;;;;4913076;29;20138;-61
2023/07/26 13:17:48;;;;;;;6.37;2.60;;;;;;;;;;4912987;29;20048;-61
2023/07/26 13:20:14;;;;;;;4.82;2.10;;;;;;;;;;4912706;29;20044;-60
2023/07/26 13:22:41;;;;;;;3.33;1.95;;;;;;;;;;4913016;29;20116;-61
2023/07/26 13:25:07;;;;;;;4.63;2.03;;;;;;;;;;4912811;29;20585;-61
2023/07/26 13:27:33;;;;;;;3.95;2.40;;;;;;;;;;4913012;29;20048;-61
2023/07/26 13:30:00;;;;;;;7.43;2.50;;;;;;;;;;4913074;29;20575;-61
2023/07/26 13:32:27;;;;;;;5.90;3.05;;;;;;;;;;4912646;29;20571;-60
2023/07/26 13:34:53;;;;;;;8.23;3.43;;;;;;;;;;4912888;29;20043;-60
2023/07/26 13:37:19;;;;;;;19.77;3.73;;;;;;;;;;4912701;29;20048;-61
2023/07/26 13:39:45;;;;;;;10.07;4.43;;;;;;;;;;4912709;29;20048;-62
2023/07/26 13:42:11;;;;;;;11.43;4.80;;;;;;;;;;4912286;29;20131;-62
2023/07/26 13:44:37;;;;;;;205.07;27.57;;;;;;;;;;4912942;29;20131;-61
2023/07/26 13:47:03;;;;;;;51.23;7.90;;;;;;;;;;4912526;29;20044;-61
2023/07/26 13:49:29;;;;;;;41.73;7.80;;;;;;;;;;4912799;29;20138;-61
2023/07/26 13:51:55;;;;;;;7.80;3.83;;;;;;;;;;4912677;29;20111;-61
2023/07/26 13:54:21;;;;;;;9.00;4.73;;;;;;;;;;4912035;29;20048;-60
2023/07/26 13:56:47;;;;;;;11.73;4.23;;;;;;;;;;4911991;29;20052;-61
2023/07/26 13:59:13;;;;;;;11.63;4.20;;;;;;;;;;4912430;29;20577;-60
2023/07/26 14:01:39;;;;;;;7.70;3.37;;;;;;;;;;4912491;29;20095;-60
2023/07/26 14:04:05;;;;;;;7.87;3.97;;;;;;;;;;4912473;29;20052;-60
2023/07/26 14:06:31;;;;;;;11.23;3.50;;;;;;;;;;4912029;29;20044;-60
2023/07/26 14:08:58;;;;;;;5.80;3.03;;;;;;;;;;4912366;29;20054;-60
2023/07/26 14:11:25;;;;;;;6.17;3.00;;;;;;;;;;4912346;29;20055;-60
2023/07/26 14:13:51;;;;;;;6.13;2.50;;;;;;;;;;4912063;29;20144;-60
2023/07/26 14:16:17;;;;;;;5.93;2.80;;;;;;;;;;4911901;29;20106;-60
2023/07/26 14:18:43;;;;;;;5.40;2.50;;;;;;;;;;4912173;29;20056;-60
2023/07/26 14:21:12;;;;;;;7.20;3.17;;;;;;;;;;4911696;29;21254;-60
2023/07/26 14:23:39;;;;;;;4.80;2.63;;;;;;;;;;4911819;29;20056;-60
2023/07/26 14:26:05;;;;;;;6.20;3.13;;;;;;;;;;4911718;29;20052;-61
2023/07/26 14:28:31;;;;;;;6.73;2.60;;;;;;;;;;4911937;29;20425;-60
2023/07/26 14:30:58;;;;;;;5.47;2.60;;;;;;;;;;4911247;29;20499;-60
2023/07/26 14:33:24;;;;;;;6.40;2.97;;;;;;;;;;4911673;29;20079;-60